Leek, United Kingdom
Current Conditions -  °F | °C
As of 11:20 AM on Saturday 20 Dec 2014 (Local Time) from EGCC Reporting Station
Rain Showers Rain Showers  
Wind Chill: 38°   Ceiling: Unl
Heat Index: 45°   Visibility: 6mi
Dew Point: 41°   Wind: 14mph
Humidity: 87%   Direction: 280°W
Pressure: 30.21"   Gusts: NA
Location:  53.1°N, 2.02°W
Report Text: EGCC 201120Z 28012KT 9999 -SHRA SCT020 SCT032TCU 07/05 Q1023 RESHRA NOSIG
Loading
Personal Weather Stations






























Interactive Weather Map New forecast layout! Learn more

10-Day Weather Forecast

Advertisements
Track Severe Weather on mobile